Avondale, CO

11:12 AM MDT on May 06, 2015 (GMT -0600)
Butts Army Air Field | | Change Station
CLOSE
Current Station
Airport
Location: Fort Carson,
Elevation: 5869 ft
Nearby Weather Stations

Elev 5869 ft 38.68 °N, 104.76 °W | Updated 14 minutes ago

Overcast
Overcast
50 °F
Feels Like 50 °F
N
5
Wind Variable Wind from SSE

Today
High -- | Low -- °F
--% Chance of Precip.
Yesterday
High -- | Low -- °F
Precip. -- in
5:55 AM 7:53 PM
Waning Gibbous, 93% visible
Pressure 29.69 in
Visibility 10.0 miles
Clouds Scattered Clouds 700 ft
Mostly Cloudy 10000 ft
Dew Point 49 °F
Humidity 94%
Rainfall 0.04 in
Snow Depth Not available.
UV 5 out of 12
Pollen 8.40 out of 12
Air Quality Not available.
Flu Activity Sporadic
METAR KFCS 061658Z AUTO 15004KT 10SM SCT007 BKN100 10/09 A2973 RMK AO2 SLP054 T01030094 $

More Conditions Fewer Conditions

Pressure 29.69 in
Visibility 10.0 miles
Clouds Scattered Clouds 700 ft
Mostly Cloudy 10000 ft
Dew Point 49 °F
Humidity 94%
Rainfall 0.04 in
Snow Depth Not available.
UV 5 out of 12
Pollen 8.40 out of 12
Air Quality Not available.
Flu Activity Sporadic
METAR KFCS 061658Z AUTO 15004KT 10SM SCT007 BKN100 10/09 A2973 RMK AO2 SLP054 T01030094 $

More Conditions Fewer Conditions

10-Day Weather Forecast

Almanac

Astronomy

May. 06, 2015 Rise Set
Actual Time
Civil Twilight
Nautical Twilight
Astronomical Twilight
Moon
Length of Visible Light
Length of Day
Tomorrow will be .
, % of the Moon is Illuminated

Today's Extremes

State Highs State Lows

Community

WunderPhotos

Upload Photos

1,818,956 photos uploaded!

WunderBlogs® & News

Nearby

Air Quality

  Air Quality AQ Index Pollutant
Not available.

Snow Depth

Station Depth Elevation

Earthquake Activity

City Distance Mag. Time & Date
Minimum magnitude displayed is 2.5.

Coastal Water Temperatures

Place Temperature

Stations

Nearby Weather Stations

Station Location Temp. Windchill Dew Point Humidity Wind Precip. Elev Updated Type